Geraldine, Alabama
Current Conditions -  °F | °C
As of 4:35 AM on Sunday 21 Dec 2014 (Local Time) from K8A0 Reporting Station
Haze Haze  
Wind Chill: 27°   Ceiling: Unl
Heat Index: 32°   Visibility: 5mi
Dew Point: 32°   Wind: 5mph
Humidity: 100%   Direction: 50°NE
Pressure: 30.17"   Gusts: NA
Location:  34.35°N, 86°W
Report Text: K8A0 211035Z AUTO 05004KT 5SM BR SCT012 00/00 A3017 RMK AO2
Loading
Personal Weather Stations






























Interactive Weather Map New forecast layout! Learn more

10-Day Weather Forecast

Advertisements
Track Severe Weather on mobile